SXS5KU EICK-LTBJ
Flight info
| Callsign | SXS5KU |
|---|---|
| Flight time | N/A |
| Altitude | 37000 |
| Route | VAPAL1L VAPAL DCT BANBA DCT DIQSE DCT ICOSA DCT RUHUN DCT UNZIB DCT NUCHU L607 KONAN UL607 SPI DCT VIBOM/N0453F390 DCT NOMBO DCT RIDAR DCT GOMIG DCT GOLVA DCT IDABO DCT NISVA DCT NIKTI DCT LMO UN127 RIKSO |
| Aircraft | B38M/M-SDE1FGHILORVWXY/HB1 |
Departure
| Time | 2026-05-07 14:51 |
|---|---|
| Airport | Cork International Airport (EICK) |
Arrival
| Time | N/A |
|---|---|
| Airport | Adnan Menderes International Airport (LTBJ) |
| Time | Latitude | Longitude | Altitude | Speed | Heading |
|---|---|---|---|---|---|
| 2026-05-07 14:29 | 51.84757 | -8.49030 | 505 ft | 0 kts | 70° |
| 2026-05-07 14:41 | 51.84756 | -8.49034 | 505 ft | 2 kts | 70° |
| 2026-05-07 14:42 | 51.84750 | -8.49062 | 505 ft | 3 kts | 70° |
| 2026-05-07 14:42 | 51.84746 | -8.49082 | 505 ft | 0 kts | 70° |
| 2026-05-07 14:46 | 51.84748 | -8.49073 | 505 ft | 2 kts | 67° |
| 2026-05-07 14:47 | 51.84751 | -8.49061 | 505 ft | 0 kts | 67° |
| 2026-05-07 14:47 | 51.84759 | -8.49056 | 505 ft | 3 kts | 13° |
| 2026-05-07 14:47 | 51.84776 | -8.49079 | 505 ft | 6 kts | 296° |
| 2026-05-07 14:48 | 51.84819 | -8.49196 | 505 ft | 17 kts | 317° |
| 2026-05-07 14:48 | 51.84931 | -8.49265 | 505 ft | 18 kts | 345° |
| 2026-05-07 14:48 | 51.85054 | -8.49333 | 505 ft | 17 kts | 340° |
| 2026-05-07 14:48 | 51.85121 | -8.49378 | 505 ft | 9 kts | 326° |
| 2026-05-07 14:49 | 51.85128 | -8.49489 | 500 ft | 12 kts | 224° |
| 2026-05-07 14:49 | 51.85117 | -8.49500 | 499 ft | 0 kts | 206° |
| 2026-05-07 14:50 | 51.85099 | -8.49511 | 493 ft | 8 kts | 199° |
| 2026-05-07 14:50 | 51.85014 | -8.49578 | 489 ft | 13 kts | 212° |
| 2026-05-07 14:50 | 51.84949 | -8.49591 | 491 ft | 0 kts | 162° |
| 2026-05-07 14:50 | 51.84905 | -8.49566 | 487 ft | 19 kts | 160° |
| 2026-05-07 14:51 | 51.84550 | -8.49358 | 486 ft | 93 kts | 160° |
| 2026-05-07 14:51 | 51.83710 | -8.48873 | 469 ft | 161 kts | 161° |
| 2026-05-07 14:51 | 51.82596 | -8.48180 | 1012 ft | 180 kts | 164° |
| 2026-05-07 14:51 | 51.81441 | -8.47535 | 2355 ft | 166 kts | 165° |
| 2026-05-07 14:52 | 51.80435 | -8.46334 | 2909 ft | 200 kts | 124° |
| 2026-05-07 14:52 | 51.80151 | -8.44020 | 3482 ft | 233 kts | 81° |
| 2026-05-07 14:52 | 51.80717 | -8.41472 | 4274 ft | 249 kts | 69° |
| 2026-05-07 14:52 | 51.81270 | -8.38752 | 5223 ft | 257 kts | 73° |
| 2026-05-07 14:53 | 51.81739 | -8.35981 | 6394 ft | 256 kts | 75° |
| 2026-05-07 14:53 | 51.82155 | -8.33159 | 7306 ft | 263 kts | 77° |
| 2026-05-07 14:53 | 51.82547 | -8.30186 | 8083 ft | 277 kts | 79° |
| 2026-05-07 14:53 | 51.82928 | -8.27040 | 8756 ft | 294 kts | 80° |
| 2026-05-07 14:54 | 51.83180 | -8.24865 | 9307 ft | 299 kts | 80° |
| 2026-05-07 14:54 | 51.83558 | -8.21560 | 10332 ft | 301 kts | 81° |
| 2026-05-07 14:54 | 51.84063 | -8.17028 | 11193 ft | 319 kts | 81° |
| 2026-05-07 14:54 | 51.84458 | -8.13410 | 11796 ft | 333 kts | 81° |
| 2026-05-07 14:55 | 51.84868 | -8.09651 | 12440 ft | 344 kts | 81° |
| 2026-05-07 14:55 | 51.85287 | -8.05838 | 13387 ft | 345 kts | 81° |
| 2026-05-07 14:55 | 51.85710 | -8.01976 | 14127 ft | 352 kts | 81° |
| 2026-05-07 14:55 | 51.86138 | -7.98067 | 14886 ft | 354 kts | 81° |
| 2026-05-07 14:56 | 51.86423 | -7.95457 | 15376 ft | 357 kts | 81° |
| 2026-05-07 14:56 | 51.86857 | -7.91472 | 16099 ft | 361 kts | 81° |
| 2026-05-07 14:56 | 51.87292 | -7.87462 | 16814 ft | 365 kts | 81° |
| 2026-05-07 14:56 | 51.87841 | -7.82090 | 17721 ft | 369 kts | 86° |
| 2026-05-07 14:57 | 51.88037 | -7.77914 | 18378 ft | 373 kts | 87° |
| 2026-05-07 14:57 | 51.88241 | -7.73712 | 18962 ft | 376 kts | 87° |
| 2026-05-07 14:57 | 51.88384 | -7.70907 | 19367 ft | 378 kts | 87° |
| 2026-05-07 14:57 | 51.88603 | -7.66659 | 19956 ft | 381 kts | 87° |
| 2026-05-07 14:58 | 51.88828 | -7.62369 | 20538 ft | 384 kts | 87° |
| 2026-05-07 14:58 | 51.89053 | -7.58052 | 21098 ft | 387 kts | 87° |
| 2026-05-07 14:58 | 51.89279 | -7.53696 | 21674 ft | 390 kts | 87° |
| 2026-05-07 14:58 | 51.89506 | -7.49309 | 22236 ft | 392 kts | 87° |
| 2026-05-07 14:59 | 51.89733 | -7.44886 | 22785 ft | 395 kts | 87° |
| 2026-05-07 14:59 | 51.89960 | -7.40424 | 23312 ft | 399 kts | 87° |
| 2026-05-07 14:59 | 51.90186 | -7.35940 | 23811 ft | 401 kts | 88° |
| 2026-05-07 14:59 | 51.90410 | -7.31482 | 24263 ft | 404 kts | 88° |
| 2026-05-07 15:00 | 51.90635 | -7.26941 | 24704 ft | 406 kts | 88° |
| 2026-05-07 15:00 | 51.90861 | -7.22374 | 25152 ft | 408 kts | 88° |
| 2026-05-07 15:00 | 51.91085 | -7.17775 | 25570 ft | 411 kts | 88° |
| 2026-05-07 15:00 | 51.91310 | -7.13148 | 25977 ft | 413 kts | 88° |
| 2026-05-07 15:01 | 51.91534 | -7.08497 | 26404 ft | 416 kts | 88° |
| 2026-05-07 15:01 | 51.91752 | -7.03953 | 26799 ft | 418 kts | 88° |
| 2026-05-07 15:01 | 51.91974 | -6.99248 | 27212 ft | 421 kts | 88° |
| 2026-05-07 15:01 | 51.92196 | -6.94519 | 27609 ft | 423 kts | 88° |
| 2026-05-07 15:02 | 51.92415 | -6.89820 | 27996 ft | 425 kts | 88° |
| 2026-05-07 15:02 | 51.92635 | -6.85039 | 28372 ft | 427 kts | 88° |
| 2026-05-07 15:02 | 51.92856 | -6.80224 | 28746 ft | 430 kts | 88° |
| 2026-05-07 15:02 | 51.93075 | -6.75382 | 29133 ft | 432 kts | 88° |
| 2026-05-07 15:03 | 51.93293 | -6.70516 | 29484 ft | 434 kts | 88° |
| 2026-05-07 15:03 | 51.93508 | -6.65699 | 29824 ft | 437 kts | 88° |
| 2026-05-07 15:03 | 51.93724 | -6.60791 | 30155 ft | 439 kts | 88° |
| 2026-05-07 15:03 | 51.93940 | -6.55845 | 30456 ft | 441 kts | 88° |
| 2026-05-07 15:04 | 51.94155 | -6.50873 | 30748 ft | 443 kts | 88° |
| 2026-05-07 15:04 | 51.94365 | -6.45953 | 31037 ft | 445 kts | 88° |
| 2026-05-07 15:04 | 51.94578 | -6.40952 | 31319 ft | 446 kts | 88° |
| 2026-05-07 15:04 | 51.94790 | -6.35915 | 31604 ft | 448 kts | 88° |
| 2026-05-07 15:05 | 51.95001 | -6.30872 | 31875 ft | 450 kts | 88° |
| 2026-05-07 15:05 | 51.95182 | -6.25793 | 32148 ft | 451 kts | 92° |
| 2026-05-07 15:05 | 51.94765 | -6.20788 | 32421 ft | 447 kts | 107° |
| 2026-05-07 15:05 | 51.94012 | -6.15893 | 32633 ft | 451 kts | 105° |
| 2026-05-07 15:06 | 51.93283 | -6.10933 | 32893 ft | 452 kts | 106° |
| 2026-05-07 15:06 | 51.92539 | -6.06003 | 33268 ft | 451 kts | 106° |
| 2026-05-07 15:06 | 51.91784 | -6.01077 | 33652 ft | 450 kts | 107° |
| 2026-05-07 15:06 | 51.91027 | -5.96165 | 34001 ft | 449 kts | 107° |
| 2026-05-07 15:07 | 51.90279 | -5.91335 | 34279 ft | 449 kts | 107° |
| 2026-05-07 15:07 | 51.89519 | -5.86441 | 34517 ft | 449 kts | 107° |
| 2026-05-07 15:07 | 51.88751 | -5.81519 | 34762 ft | 450 kts | 107° |
| 2026-05-07 15:07 | 51.87983 | -5.76610 | 35014 ft | 450 kts | 107° |
| 2026-05-07 15:08 | 51.87213 | -5.71694 | 35266 ft | 451 kts | 107° |
| 2026-05-07 15:08 | 51.86439 | -5.66772 | 35496 ft | 452 kts | 107° |
| 2026-05-07 15:08 | 51.85662 | -5.61847 | 35733 ft | 452 kts | 107° |
| 2026-05-07 15:08 | 51.84882 | -5.56914 | 35972 ft | 452 kts | 107° |
| 2026-05-07 15:09 | 51.84100 | -5.51988 | 36200 ft | 453 kts | 107° |
| 2026-05-07 15:09 | 51.83316 | -5.47055 | 36429 ft | 453 kts | 107° |
| 2026-05-07 15:09 | 51.82539 | -5.42197 | 36649 ft | 453 kts | 107° |
| 2026-05-07 15:09 | 51.81750 | -5.37261 | 36858 ft | 454 kts | 107° |
| 2026-05-07 15:10 | 51.80966 | -5.32375 | 36989 ft | 454 kts | 107° |
| 2026-05-07 15:10 | 51.80184 | -5.27432 | 37002 ft | 454 kts | 104° |
| 2026-05-07 15:10 | 51.79057 | -5.17393 | 37005 ft | 454 kts | 102° |
| 2026-05-07 15:11 | 51.77890 | -5.07374 | 37014 ft | 454 kts | 103° |
| 2026-05-07 15:11 | 51.76713 | -4.97445 | 37009 ft | 454 kts | 103° |
| 2026-05-07 15:12 | 51.75515 | -4.87417 | 37007 ft | 454 kts | 103° |
| 2026-05-07 15:12 | 51.74311 | -4.77410 | 37009 ft | 454 kts | 103° |
| 2026-05-07 15:13 | 51.73102 | -4.67453 | 37009 ft | 454 kts | 103° |
| 2026-05-07 15:13 | 51.71889 | -4.57526 | 37013 ft | 454 kts | 103° |
| 2026-05-07 15:14 | 51.70658 | -4.47533 | 37014 ft | 455 kts | 103° |
| 2026-05-07 15:14 | 51.69417 | -4.37530 | 37014 ft | 455 kts | 103° |
| 2026-05-07 15:15 | 51.68169 | -4.27543 | 37014 ft | 455 kts | 103° |
| 2026-05-07 15:15 | 51.66911 | -4.17557 | 37011 ft | 455 kts | 103° |
| 2026-05-07 15:16 | 51.65655 | -4.07646 | 37014 ft | 454 kts | 103° |
| 2026-05-07 15:16 | 51.64383 | -3.97685 | 37017 ft | 454 kts | 103° |
| 2026-05-07 15:17 | 51.63105 | -3.87727 | 37015 ft | 454 kts | 103° |
| 2026-05-07 15:17 | 51.61823 | -3.77782 | 37022 ft | 454 kts | 104° |
| 2026-05-07 15:18 | 51.60541 | -3.67897 | 37022 ft | 454 kts | 104° |
| 2026-05-07 15:18 | 51.59373 | -3.57915 | 37024 ft | 455 kts | 97° |
| 2026-05-07 15:19 | 51.58774 | -3.47802 | 37035 ft | 456 kts | 97° |
| 2026-05-07 15:19 | 51.58174 | -3.37615 | 37038 ft | 456 kts | 97° |
| 2026-05-07 15:20 | 51.57574 | -3.27531 | 37038 ft | 456 kts | 97° |
| 2026-05-07 15:20 | 51.56963 | -3.17414 | 37030 ft | 457 kts | 97° |
| 2026-05-07 15:21 | 51.56342 | -3.07255 | 37030 ft | 456 kts | 97° |
| 2026-05-07 15:21 | 51.55713 | -2.97105 | 37035 ft | 457 kts | 97° |
| 2026-05-07 15:22 | 51.55078 | -2.87027 | 37035 ft | 456 kts | 97° |
| 2026-05-07 15:22 | 51.54431 | -2.76887 | 37018 ft | 456 kts | 97° |
| 2026-05-07 15:23 | 51.53776 | -2.66765 | 37019 ft | 456 kts | 98° |
| 2026-05-07 15:23 | 51.53110 | -2.56606 | 37022 ft | 456 kts | 98° |
| 2026-05-07 15:24 | 51.52437 | -2.46477 | 37018 ft | 456 kts | 98° |
| 2026-05-07 15:24 | 51.51760 | -2.36417 | 37015 ft | 456 kts | 98° |
| 2026-05-07 15:25 | 51.51068 | -2.26284 | 37020 ft | 456 kts | 98° |
| 2026-05-07 15:25 | 51.50368 | -2.16158 | 37026 ft | 456 kts | 98° |
| 2026-05-07 15:26 | 51.49663 | -2.06038 | 37028 ft | 456 kts | 98° |
| 2026-05-07 15:26 | 51.48949 | -1.95995 | 37029 ft | 456 kts | 98° |
| 2026-05-07 15:27 | 51.48223 | -1.85877 | 37036 ft | 457 kts | 98° |
| 2026-05-07 15:27 | 51.47488 | -1.75765 | 37036 ft | 457 kts | 98° |
| 2026-05-07 15:28 | 51.46589 | -1.65703 | 37031 ft | 454 kts | 105° |
| 2026-05-07 15:28 | 51.45254 | -1.55852 | 37035 ft | 455 kts | 103° |
| 2026-05-07 15:29 | 51.43938 | -1.45924 | 37032 ft | 455 kts | 104° |
| 2026-05-07 15:29 | 51.42570 | -1.36047 | 37028 ft | 456 kts | 104° |
| 2026-05-07 15:30 | 51.41195 | -1.26137 | 37028 ft | 456 kts | 104° |
| 2026-05-07 15:30 | 51.39821 | -1.16244 | 37042 ft | 456 kts | 102° |
| 2026-05-07 15:31 | 51.39193 | -1.06112 | 37042 ft | 458 kts | 96° |
| 2026-05-07 15:31 | 51.38669 | -0.96024 | 37046 ft | 458 kts | 96° |
| 2026-05-07 15:32 | 51.38137 | -0.85870 | 37049 ft | 458 kts | 96° |
| 2026-05-07 15:32 | 51.37599 | -0.75719 | 37046 ft | 458 kts | 96° |
| 2026-05-07 15:33 | 51.37050 | -0.65556 | 37047 ft | 458 kts | 96° |
| 2026-05-07 15:33 | 51.36493 | -0.55406 | 37044 ft | 458 kts | 96° |
| 2026-05-07 15:34 | 51.35932 | -0.45328 | 37044 ft | 458 kts | 96° |
| 2026-05-07 15:34 | 51.35358 | -0.35187 | 37040 ft | 458 kts | 97° |
| 2026-05-07 15:35 | 51.34774 | -0.25039 | 37060 ft | 458 kts | 97° |
| 2026-05-07 15:35 | 51.34182 | -0.14889 | 37071 ft | 458 kts | 97° |
| 2026-05-07 15:36 | 51.33587 | -0.04812 | 37076 ft | 458 kts | 97° |
| 2026-05-07 15:36 | 51.32872 | 0.05303 | 37078 ft | 457 kts | 101° |
| 2026-05-07 15:37 | 51.31900 | 0.15353 | 37075 ft | 457 kts | 100° |
| 2026-05-07 15:37 | 51.30951 | 0.25410 | 37071 ft | 458 kts | 100° |
| 2026-05-07 15:38 | 51.30476 | 0.30412 | 36873 ft | 458 kts | 100° |
| 2026-05-07 15:38 | 51.29997 | 0.35446 | 36859 ft | 458 kts | 100° |
| 2026-05-07 15:38 | 51.29039 | 0.45435 | 36847 ft | 458 kts | 100° |
| 2026-05-07 15:39 | 51.28068 | 0.55473 | 36866 ft | 458 kts | 100° |
| 2026-05-07 15:39 | 51.27085 | 0.65526 | 36903 ft | 458 kts | 100° |
| 2026-05-07 15:40 | 51.26104 | 0.75481 | 36944 ft | 458 kts | 100° |
| 2026-05-07 15:40 | 51.25106 | 0.85512 | 36994 ft | 458 kts | 101° |
| 2026-05-07 15:41 | 51.24098 | 0.95560 | 37068 ft | 458 kts | 101° |
| 2026-05-07 15:41 | 51.23082 | 1.05588 | 37071 ft | 458 kts | 101° |
| 2026-05-07 15:42 | 51.22064 | 1.15560 | 37070 ft | 458 kts | 101° |
| 2026-05-07 15:42 | 51.21030 | 1.25586 | 37077 ft | 458 kts | 101° |
| 2026-05-07 15:43 | 51.19988 | 1.35615 | 37074 ft | 458 kts | 101° |
| 2026-05-07 15:43 | 51.18936 | 1.45642 | 37073 ft | 458 kts | 101° |
| 2026-05-07 15:44 | 51.17883 | 1.55599 | 37071 ft | 458 kts | 101° |
| 2026-05-07 15:44 | 51.16815 | 1.65610 | 37074 ft | 459 kts | 101° |
| 2026-05-07 15:45 | 51.15742 | 1.75587 | 37071 ft | 459 kts | 101° |
| 2026-05-07 15:45 | 51.14657 | 1.85600 | 37074 ft | 459 kts | 101° |
| 2026-05-07 15:46 | 51.13092 | 2.00556 | 37066 ft | 459 kts | 95° |
| 2026-05-07 15:47 | 51.12617 | 2.10693 | 37068 ft | 459 kts | 96° |
| 2026-05-07 15:47 | 51.12064 | 2.20778 | 37074 ft | 459 kts | 96° |
| 2026-05-07 15:48 | 51.11484 | 2.30950 | 37075 ft | 459 kts | 96° |
| 2026-05-07 15:48 | 51.10898 | 2.41073 | 37067 ft | 459 kts | 96° |
| 2026-05-07 15:49 | 51.10302 | 2.51188 | 37067 ft | 459 kts | 96° |
| 2026-05-07 15:49 | 51.09703 | 2.61237 | 37073 ft | 459 kts | 97° |
| 2026-05-07 15:50 | 51.08396 | 2.71090 | 37074 ft | 457 kts | 108° |
| 2026-05-07 15:50 | 51.06647 | 2.80803 | 37077 ft | 457 kts | 108° |
| 2026-05-07 15:51 | 51.04880 | 2.90519 | 37071 ft | 457 kts | 108° |
| 2026-05-07 15:51 | 51.03132 | 3.00077 | 37069 ft | 457 kts | 108° |
| 2026-05-07 15:52 | 51.01335 | 3.09852 | 37068 ft | 457 kts | 108° |
| 2026-05-07 15:52 | 50.99847 | 3.17906 | 37063 ft | 457 kts | 108° |
| 2026-05-07 15:53 | 50.98457 | 3.25402 | 37061 ft | 458 kts | 108° |
| 2026-05-07 15:53 | 50.96694 | 3.34860 | 37059 ft | 458 kts | 108° |
| 2026-05-07 15:54 | 50.94881 | 3.44537 | 37055 ft | 458 kts | 108° |
| 2026-05-07 15:54 | 50.93061 | 3.54204 | 37057 ft | 458 kts | 108° |
| 2026-05-07 15:55 | 50.91226 | 3.63890 | 37058 ft | 458 kts | 108° |
| 2026-05-07 15:55 | 50.89370 | 3.73531 | 37064 ft | 458 kts | 108° |
| 2026-05-07 15:56 | 50.87517 | 3.83122 | 37068 ft | 458 kts | 108° |
| 2026-05-07 15:56 | 50.85653 | 3.92724 | 37067 ft | 458 kts | 109° |
| 2026-05-07 15:57 | 50.83765 | 4.02400 | 37066 ft | 458 kts | 109° |
| 2026-05-07 15:57 | 50.81878 | 4.12023 | 37069 ft | 458 kts | 109° |
| 2026-05-07 15:58 | 50.79994 | 4.21583 | 37073 ft | 458 kts | 109° |
| 2026-05-07 15:58 | 50.78090 | 4.31196 | 37074 ft | 458 kts | 109° |
| 2026-05-07 15:59 | 50.76179 | 4.40799 | 37071 ft | 458 kts | 109° |
| 2026-05-07 15:59 | 50.74258 | 4.50401 | 37073 ft | 458 kts | 109° |
| 2026-05-07 16:00 | 50.72340 | 4.60010 | 37065 ft | 459 kts | 108° |
| 2026-05-07 16:00 | 50.70493 | 4.69558 | 37059 ft | 459 kts | 109° |
| 2026-05-07 16:01 | 50.68616 | 4.79185 | 37068 ft | 459 kts | 109° |
| 2026-05-07 16:01 | 50.66735 | 4.88790 | 37079 ft | 459 kts | 109° |
| 2026-05-07 16:02 | 50.64785 | 4.98351 | 37069 ft | 458 kts | 109° |
| 2026-05-07 16:02 | 50.62826 | 5.07895 | 37067 ft | 458 kts | 109° |
| 2026-05-07 16:03 | 50.60873 | 5.17372 | 37074 ft | 458 kts | 109° |
| 2026-05-07 16:03 | 50.58898 | 5.26907 | 37074 ft | 458 kts | 109° |
| 2026-05-07 16:04 | 50.56919 | 5.36418 | 37079 ft | 458 kts | 109° |
| 2026-05-07 16:04 | 50.54930 | 5.45931 | 37075 ft | 458 kts | 110° |
| 2026-05-07 16:05 | 50.52933 | 5.55443 | 37072 ft | 458 kts | 110° |
| 2026-05-07 16:05 | 50.50743 | 5.64731 | 37083 ft | 456 kts | 116° |
| 2026-05-07 16:06 | 50.48155 | 5.73851 | 37066 ft | 457 kts | 115° |
| 2026-05-07 16:06 | 50.45618 | 5.82983 | 37056 ft | 457 kts | 115° |
| 2026-05-07 16:07 | 50.43071 | 5.92140 | 37038 ft | 457 kts | 115° |
| 2026-05-07 16:07 | 50.40539 | 6.01211 | 37041 ft | 457 kts | 115° |
| 2026-05-07 16:08 | 50.37982 | 6.10339 | 37037 ft | 457 kts | 115° |
| 2026-05-07 16:08 | 50.35417 | 6.19455 | 37043 ft | 458 kts | 115° |
| 2026-05-07 16:09 | 50.32847 | 6.28557 | 37043 ft | 457 kts | 115° |
| 2026-05-07 16:09 | 50.30283 | 6.37603 | 37029 ft | 457 kts | 115° |
| 2026-05-07 16:10 | 50.27699 | 6.46686 | 37031 ft | 457 kts | 115° |
| 2026-05-07 16:10 | 50.25106 | 6.55763 | 37029 ft | 457 kts | 115° |
| 2026-05-07 16:11 | 50.22510 | 6.64816 | 37033 ft | 457 kts | 116° |
| 2026-05-07 16:11 | 50.19904 | 6.73874 | 37034 ft | 457 kts | 116° |
| 2026-05-07 16:12 | 50.17308 | 6.82859 | 37040 ft | 457 kts | 116° |
| 2026-05-07 16:12 | 50.14690 | 6.91887 | 37051 ft | 457 kts | 116° |
| 2026-05-07 16:13 | 50.12062 | 7.00914 | 37043 ft | 457 kts | 116° |
| 2026-05-07 16:13 | 50.09431 | 7.09920 | 37050 ft | 457 kts | 116° |
| 2026-05-07 16:14 | 50.06806 | 7.18871 | 37041 ft | 457 kts | 116° |
| 2026-05-07 16:14 | 50.04158 | 7.27863 | 37051 ft | 457 kts | 116° |
| 2026-05-07 16:15 | 50.01506 | 7.36840 | 37046 ft | 457 kts | 116° |
| 2026-05-07 16:15 | 49.98846 | 7.45811 | 37046 ft | 457 kts | 116° |
| 2026-05-07 16:16 | 49.96180 | 7.54769 | 37047 ft | 457 kts | 116° |
| 2026-05-07 16:16 | 49.93501 | 7.63735 | 37035 ft | 457 kts | 116° |
| 2026-05-07 16:17 | 49.90841 | 7.72608 | 37042 ft | 457 kts | 116° |
| 2026-05-07 16:17 | 49.88151 | 7.81544 | 37039 ft | 457 kts | 117° |
| 2026-05-07 16:18 | 49.85455 | 7.90469 | 37047 ft | 457 kts | 117° |
| 2026-05-07 16:18 | 49.82755 | 7.99375 | 37043 ft | 457 kts | 117° |
| 2026-05-07 16:19 | 49.80048 | 8.08268 | 37046 ft | 457 kts | 117° |
| 2026-05-07 16:19 | 49.77354 | 8.17093 | 37047 ft | 457 kts | 117° |
| 2026-05-07 16:20 | 49.74629 | 8.25987 | 37043 ft | 457 kts | 117° |
| 2026-05-07 16:20 | 49.71902 | 8.34852 | 37041 ft | 457 kts | 117° |
| 2026-05-07 16:21 | 49.69173 | 8.43693 | 37046 ft | 457 kts | 117° |
| 2026-05-07 16:21 | 49.66452 | 8.52475 | 37044 ft | 457 kts | 117° |
| 2026-05-07 16:22 | 49.63704 | 8.61316 | 37044 ft | 457 kts | 117° |
| 2026-05-07 16:22 | 49.60952 | 8.70134 | 37042 ft | 457 kts | 118° |
| 2026-05-07 16:23 | 49.58193 | 8.78947 | 37045 ft | 457 kts | 118° |
| 2026-05-07 16:23 | 49.56315 | 8.84929 | 37051 ft | 456 kts | 118° |
| 2026-05-07 16:24 | 49.53563 | 8.93675 | 37118 ft | 458 kts | 118° |
| 2026-05-07 16:24 | 49.52172 | 8.98083 | 37367 ft | 458 kts | 118° |
| 2026-05-07 16:24 | 49.50776 | 9.02502 | 37564 ft | 459 kts | 118° |
| 2026-05-07 16:24 | 49.49377 | 9.06924 | 37753 ft | 460 kts | 118° |